Time;durP1;ratioP1;P1;durP2;ratioP2;P2;SDS_P1;SDS_P2;PMS_P1;PMS_P2;Temp;Humidity;BMP_temperature;BMP_pressure;BME280_temperature;BME280_humidity;BME280_pressure;Samples;Min_cycle;Max_cycle;Signal;HPM_P1;HPM_P2
2021/12/24 00:00:18;;;;;;;1999.90;999.90;;;9.30;99.90;;;;;;5010595;28;20770;-67
2021/12/24 00:02:44;;;;;;;1999.90;999.90;;;9.40;99.90;;;;;;5010815;28;20452;-67
2021/12/24 00:05:10;;;;;;;1999.90;999.90;;;9.30;99.90;;;;;;5010157;28;20406;-67
2021/12/24 00:07:35;;;;;;;1999.90;999.90;;;9.30;99.90;;;;;;5010037;28;20202;-69
2021/12/24 00:10:02;;;;;;;1999.90;999.90;;;9.30;99.90;;;;;;5009768;28;21129;-68
2021/12/24 00:12:31;;;;;;;1999.90;999.90;;;9.30;99.90;;;;;;5009754;28;20666;-67
2021/12/24 00:15:02;;;;;;;1999.90;999.90;;;9.30;99.90;;;;;;5009284;28;20413;-68
2021/12/24 00:17:31;;;;;;;1999.90;999.90;;;9.30;99.90;;;;;;5009786;28;20778;-68
2021/12/24 00:20:09;;;;;;;1999.90;999.90;;;9.30;99.90;;;;;;5009417;28;20428;-69
2021/12/24 00:36:03;;;;;;;1999.90;999.90;;;9.30;99.90;;;;;;5009211;28;20458;-68
2021/12/24 00:38:29;;;;;;;1999.90;999.90;;;9.30;99.90;;;;;;5008984;28;20932;-69
2021/12/24 00:40:55;;;;;;;1999.90;999.90;;;9.30;99.90;;;;;;5009040;28;20235;-68
2021/12/24 00:43:21;;;;;;;1999.90;999.90;;;9.20;99.90;;;;;;5009085;28;20203;-68
2021/12/24 00:45:49;;;;;;;1999.90;999.90;;;9.10;99.90;;;;;;5008824;28;20937;-68
2021/12/24 00:48:18;;;;;;;1999.90;999.90;;;9.10;99.90;;;;;;5008728;28;20512;-69
2021/12/24 00:51:07;;;;;;;1999.90;999.90;;;9.10;99.90;;;;;;5008749;28;20413;-68
2021/12/24 00:55:59;;;;;;;1999.90;999.90;;;9.00;99.90;;;;;;5012109;28;20412;-68
2021/12/24 00:58:25;;;;;;;1999.90;999.90;;;9.00;99.90;;;;;;5011932;28;20534;-68
2021/12/24 01:00:50;;;;;;;1999.90;999.90;;;8.90;99.90;;;;;;5012113;28;20965;-67
2021/12/24 01:03:16;;;;;;;1999.90;999.90;;;8.90;99.90;;;;;;5012052;28;20206;-67
2021/12/24 01:05:43;;;;;;;1999.90;999.90;;;8.90;99.90;;;;;;5011971;28;20182;-67
2021/12/24 01:08:11;;;;;;;1999.90;999.90;;;8.90;99.90;;;;;;5011988;28;20480;-67
2021/12/24 01:10:45;;;;;;;1999.90;999.90;;;8.90;99.90;;;;;;5011997;28;20416;-67
2021/12/24 01:13:11;;;;;;;1999.90;999.90;;;8.90;99.90;;;;;;5012026;28;20430;-67
2021/12/24 01:15:43;;;;;;;1999.90;999.90;;;9.00;99.90;;;;;;5011896;28;20416;-67
2021/12/24 01:18:17;;;;;;;1999.90;999.90;;;9.00;99.90;;;;;;5011968;28;20428;-67
2021/12/24 01:20:48;;;;;;;1999.90;999.90;;;9.10;99.90;;;;;;5011799;28;20408;-68
2021/12/24 01:25:54;;;;;;;1999.90;999.90;;;9.10;99.90;;;;;;5011516;28;20411;-67
2021/12/24 01:28:38;;;;;;;1999.90;999.90;;;9.20;99.90;;;;;;5011925;28;20514;-67
2021/12/24 01:44:31;;;;;;;1999.90;999.90;;;9.30;99.90;;;;;;5011106;28;20460;-67
2021/12/24 01:46:59;;;;;;;1999.90;999.90;;;9.40;99.90;;;;;;5011335;28;20408;-67
2021/12/24 01:49:25;;;;;;;1999.90;999.90;;;9.40;99.90;;;;;;5011404;28;20491;-67
2021/12/24 01:51:52;;;;;;;1999.90;999.90;;;9.40;99.90;;;;;;5011290;28;20405;-67
2021/12/24 01:54:18;;;;;;;1999.90;999.90;;;9.40;99.90;;;;;;5011029;28;20219;-67
2021/12/24 01:56:45;;;;;;;1999.90;999.90;;;9.40;99.90;;;;;;5011246;28;20416;-67
2021/12/24 01:59:11;;;;;;;1999.90;999.90;;;9.50;99.90;;;;;;5010959;28;20449;-67
2021/12/24 02:01:37;;;;;;;1999.90;999.90;;;9.50;99.90;;;;;;5011449;28;20410;-67
2021/12/24 02:04:03;;;;;;;1999.90;999.90;;;9.40;99.90;;;;;;5010860;28;20484;-67
2021/12/24 02:06:28;;;;;;;1999.90;999.90;;;9.40;99.90;;;;;;5010784;28;20186;-67
2021/12/24 02:08:54;;;;;;;1999.90;999.90;;;9.50;99.90;;;;;;5010927;28;20460;-67
2021/12/24 02:11:20;;;;;;;1999.90;999.90;;;9.50;99.90;;;;;;5011011;28;20185;-68
2021/12/24 02:13:46;;;;;;;1999.90;999.90;;;9.50;99.90;;;;;;5010859;28;20231;-68
2021/12/24 02:30:05;;;;;;;1999.90;999.90;;;9.40;99.90;;;;;;5010754;28;20456;-67
2021/12/24 02:32:31;;;;;;;1999.90;999.90;;;9.40;99.90;;;;;;5010624;28;20420;-67
2021/12/24 02:34:56;;;;;;;1999.90;999.90;;;9.30;99.90;;;;;;5010420;28;20408;-66
2021/12/24 02:37:22;;;;;;;1999.90;999.90;;;9.30;99.90;;;;;;5010540;28;20177;-67
2021/12/24 02:39:47;;;;;;;1999.90;999.90;;;9.30;99.90;;;;;;5010469;28;20550;-67
2021/12/24 02:42:22;;;;;;;1999.90;999.90;;;9.30;99.90;;;;;;5010497;28;20170;-67
2021/12/24 02:44:50;;;;;;;1999.90;999.90;;;9.30;99.90;;;;;;5010268;28;20168;-67
2021/12/24 02:55:03;;;;;;;1999.90;999.90;;;9.30;99.90;;;;;;5010437;28;20420;-67
2021/12/24 02:57:31;;;;;;;1999.90;999.90;;;9.30;99.90;;;;;;5010356;28;20485;-67
2021/12/24 03:00:06;;;;;;;1999.90;999.90;;;9.30;99.90;;;;;;5010198;28;20813;-68
2021/12/24 03:02:32;;;;;;;1999.90;999.90;;;9.30;99.90;;;;;;5010394;28;20934;-67
2021/12/24 03:04:59;;;;;;;1999.90;999.90;;;9.30;99.90;;;;;;5009926;28;20798;-67
2021/12/24 03:07:24;;;;;;;1999.90;999.90;;;9.30;99.90;;;;;;5010151;28;20397;-68
2021/12/24 03:09:50;;;;;;;1999.90;999.90;;;9.30;99.90;;;;;;5010018;28;20560;-68
2021/12/24 03:12:15;;;;;;;1999.90;999.90;;;9.30;99.90;;;;;;5010103;28;20169;-68
2021/12/24 03:14:42;;;;;;;1999.90;999.90;;;9.20;99.90;;;;;;5009843;28;20196;-68
2021/12/24 03:17:12;;;;;;;1999.90;999.90;;;9.20;99.90;;;;;;5009208;28;20176;-68
2021/12/24 03:19:38;;;;;;;1999.90;999.90;;;9.20;99.90;;;;;;5010233;28;20436;-68
2021/12/24 03:22:32;;;;;;;1999.90;999.90;;;9.20;99.90;;;;;;5009990;28;20904;-68
2021/12/24 03:24:57;;;;;;;1999.90;999.90;;;9.10;99.90;;;;;;5009826;28;20471;-68
2021/12/24 03:27:23;;;;;;;1999.90;999.90;;;9.10;99.90;;;;;;5009888;28;20400;-68
2021/12/24 03:29:50;;;;;;;1999.90;999.90;;;9.10;99.90;;;;;;5009753;28;20196;-67
2021/12/24 03:32:15;;;;;;;1999.90;999.90;;;9.10;99.90;;;;;;5009866;28;20258;-67
2021/12/24 03:34:41;;;;;;;1999.90;999.90;;;9.10;99.90;;;;;;5009516;28;20497;-67
2021/12/24 03:37:07;;;;;;;1999.90;999.90;;;9.10;99.90;;;;;;5009617;28;20166;-67
2021/12/24 03:39:34;;;;;;;1999.90;999.90;;;9.10;99.90;;;;;;5009810;28;20197;-67
2021/12/24 03:42:00;;;;;;;1999.90;999.90;;;9.10;99.90;;;;;;5009857;28;20770;-67
2021/12/24 03:44:41;;;;;;;1999.90;999.90;;;9.00;99.90;;;;;;5010046;28;20452;-69
2021/12/24 03:47:12;;;;;;;1999.90;999.90;;;9.00;99.90;;;;;;5011962;28;20413;-68
2021/12/24 03:49:54;;;;;;;1999.90;999.90;;;9.00;99.90;;;;;;5011885;28;20439;-68
2021/12/24 03:54:56;;;;;;;1999.90;999.90;;;9.00;99.90;;;;;;5011818;28;20413;-69
2021/12/24 03:57:22;;;;;;;1999.90;999.90;;;9.00;99.90;;;;;;5011878;28;20913;-68
2021/12/24 03:59:48;;;;;;;1999.90;999.90;;;9.00;99.90;;;;;;5010551;28;20890;-68
2021/12/24 04:02:13;;;;;;;1999.90;999.90;;;9.10;99.90;;;;;;5011332;28;20400;-67
2021/12/24 04:04:39;;;;;;;1999.90;999.90;;;9.10;99.90;;;;;;5010992;28;20719;-67
2021/12/24 04:07:06;;;;;;;1999.90;999.90;;;9.10;99.90;;;;;;5011358;28;20211;-68
2021/12/24 04:09:32;;;;;;;1999.90;999.90;;;9.10;99.90;;;;;;5011474;28;20223;-68
2021/12/24 04:11:58;;;;;;;1999.90;999.90;;;9.10;99.90;;;;;;5011448;28;20411;-68
2021/12/24 04:14:24;;;;;;;1999.90;999.90;;;9.20;99.90;;;;;;5010972;28;20779;-68
2021/12/24 04:16:49;;;;;;;1999.90;999.90;;;9.20;99.90;;;;;;5010910;28;20231;-69
2021/12/24 04:24:49;;;;;;;1999.90;999.90;;;9.20;99.90;;;;;;5011077;28;20210;-69
2021/12/24 04:24:56;;;;;;;1999.90;999.90;;;9.30;99.90;;;;;;5011415;28;20761;-67
2021/12/24 04:27:27;;;;;;;1999.90;999.90;;;9.40;99.90;;;;;;5011619;28;20403;-69
2021/12/24 04:30:00;;;;;;;1999.90;999.90;;;9.40;99.90;;;;;;5014537;28;20491;-67
2021/12/24 04:32:36;;;;;;;1999.90;999.90;;;9.50;99.90;;;;;;5015126;28;20895;-67
2021/12/24 04:35:18;;;;;;;1999.90;999.90;;;9.50;99.90;;;;;;5012350;28;20423;-68
2021/12/24 04:51:27;;;;;;;1999.90;999.90;;;9.60;99.90;;;;;;5012290;28;20821;-67
2021/12/24 05:04:35;;;;;;;1999.90;999.90;;;9.60;99.90;;;;;;5011722;28;20488;-68
2021/12/24 05:07:27;;;;;;;1999.90;999.90;;;9.70;99.90;;;;;;5012111;28;20489;-68
2021/12/24 05:09:53;;;;;;;1999.90;999.90;;;9.70;99.90;;;;;;5011983;28;20944;-68
2021/12/24 05:12:18;;;;;;;1999.90;999.90;;;9.70;99.90;;;;;;5011950;28;20406;-68
2021/12/24 05:14:44;;;;;;;1999.90;999.90;;;9.70;99.90;;;;;;5011660;28;20252;-68
2021/12/24 05:22:30;;;;;;;1999.90;999.90;;;9.70;99.90;;;;;;5011988;28;20409;-68
2021/12/24 05:24:57;;;;;;;1999.90;999.90;;;9.70;99.90;;;;;;5011495;28;20413;-68
2021/12/24 05:27:23;;;;;;;1999.90;999.90;;;9.70;99.90;;;;;;5011730;28;20402;-68
2021/12/24 05:29:49;;;;;;;1999.90;999.90;;;9.70;99.90;;;;;;5011593;28;21127;-68
2021/12/24 05:32:15;;;;;;;1999.90;999.90;;;9.70;99.90;;;;;;5011625;28;20501;-68
2021/12/24 05:34:40;;;;;;;1999.90;999.90;;;9.70;99.90;;;;;;5011468;28;20536;-69
2021/12/24 05:37:06;;;;;;;1999.90;999.90;;;9.70;99.90;;;;;;5011527;28;20167;-68
2021/12/24 05:39:34;;;;;;;1999.90;999.90;;;9.70;99.90;;;;;;5010799;28;20239;-68
2021/12/24 05:42:00;;;;;;;1999.90;999.90;;;9.70;99.90;;;;;;5011436;28;20170;-68
2021/12/24 05:44:26;;;;;;;1999.90;999.90;;;9.70;99.90;;;;;;5011035;28;20444;-68
2021/12/24 05:46:52;;;;;;;1999.90;999.90;;;9.70;99.90;;;;;;5011378;28;20414;-68
2021/12/24 05:49:17;;;;;;;1999.90;999.90;;;9.70;99.90;;;;;;5011338;28;20433;-68
2021/12/24 05:51:43;;;;;;;1999.90;999.90;;;9.80;99.90;;;;;;5011640;28;20167;-68
2021/12/24 05:54:09;;;;;;;1999.90;999.90;;;9.70;99.90;;;;;;5011005;28;20177;-68
2021/12/24 05:56:34;;;;;;;1999.90;999.90;;;9.80;99.90;;;;;;5011069;28;20182;-68
2021/12/24 05:59:00;;;;;;;1999.90;999.90;;;9.80;99.90;;;;;;5011040;28;20206;-68
2021/12/24 06:01:26;;;;;;;1999.90;999.90;;;9.80;99.90;;;;;;5011178;28;20443;-69
2021/12/24 06:03:51;;;;;;;1999.90;999.90;;;9.80;99.90;;;;;;5011056;28;20206;-68
2021/12/24 06:06:17;;;;;;;1999.90;999.90;;;9.80;99.90;;;;;;5010875;28;20175;-68
2021/12/24 06:08:43;;;;;;;1999.90;999.90;;;9.80;99.90;;;;;;5011090;28;20671;-68
2021/12/24 06:11:08;;;;;;;1999.90;999.90;;;9.80;99.90;;;;;;5010956;28;20538;-68
2021/12/24 06:13:36;;;;;;;1999.90;999.90;;;9.80;99.90;;;;;;5011061;28;20182;-68
2021/12/24 06:16:02;;;;;;;1999.90;999.90;;;9.70;99.90;;;;;;5010748;28;20797;-68
2021/12/24 06:18:29;;;;;;;1999.90;999.90;;;9.70;99.90;;;;;;5010880;28;20406;-68
2021/12/24 06:21:00;;;;;;;1999.90;999.90;;;9.80;99.90;;;;;;5010983;28;20418;-68
2021/12/24 06:23:27;;;;;;;1999.90;999.90;;;9.80;99.90;;;;;;5010750;28;20446;-68
2021/12/24 06:25:55;;;;;;;1999.90;999.90;;;9.80;99.90;;;;;;5010492;28;20433;-68
2021/12/24 06:28:22;;;;;;;1999.90;999.90;;;9.80;99.90;;;;;;5010731;28;20436;-68
2021/12/24 06:30:48;;;;;;;1999.90;999.90;;;9.80;99.90;;;;;;5010735;28;20397;-68
2021/12/24 06:33:14;;;;;;;1999.90;999.90;;;9.80;99.90;;;;;;5010669;28;20413;-68
2021/12/24 06:35:39;;;;;;;1999.90;999.90;;;9.80;99.90;;;;;;5010533;28;20418;-68
2021/12/24 06:38:06;;;;;;;1999.90;999.90;;;9.80;99.90;;;;;;5010783;28;20170;-68
2021/12/24 06:40:32;;;;;;;1999.90;999.90;;;9.80;99.90;;;;;;5010577;28;20191;-69
2021/12/24 06:42:58;;;;;;;1999.90;999.90;;;9.70;99.90;;;;;;5010547;28;20450;-68
2021/12/24 06:45:24;;;;;;;1999.90;999.90;;;9.70;99.90;;;;;;5010367;28;20409;-68
2021/12/24 06:47:55;;;;;;;1999.90;999.90;;;9.70;99.90;;;;;;5010498;28;20165;-68
2021/12/24 06:50:22;;;;;;;1999.90;999.90;;;9.70;99.90;;;;;;5010432;28;20922;-68
2021/12/24 06:52:48;;;;;;;1999.90;999.90;;;9.70;99.90;;;;;;5009206;28;20405;-68
2021/12/24 06:55:14;;;;;;;1999.90;999.90;;;9.70;99.90;;;;;;5010132;28;20496;-68
2021/12/24 06:57:41;;;;;;;1999.90;999.90;;;9.70;99.90;;;;;;5010467;28;20449;-68
2021/12/24 07:00:13;;;;;;;1999.90;999.90;;;9.80;99.90;;;;;;5010167;28;20496;-68
2021/12/24 07:02:39;;;;;;;1999.90;999.90;;;9.70;99.90;;;;;;5010179;28;20416;-68
2021/12/24 07:05:05;;;;;;;1999.90;999.90;;;9.70;99.90;;;;;;5010226;28;20406;-68
2021/12/24 07:07:31;;;;;;;1999.90;999.90;;;9.70;99.90;;;;;;5010170;28;20170;-68
2021/12/24 07:09:56;;;;;;;1999.90;999.90;;;9.70;99.90;;;;;;5010066;28;20428;-68
2021/12/24 07:12:22;;;;;;;1999.90;999.90;;;9.70;99.90;;;;;;5010163;28;20577;-68
2021/12/24 07:14:49;;;;;;;1999.90;999.90;;;9.70;99.90;;;;;;5009823;28;20176;-69
2021/12/24 07:17:15;;;;;;;1999.90;999.90;;;9.60;99.90;;;;;;5010069;28;20260;-69
2021/12/24 07:19:41;;;;;;;1999.90;999.90;;;9.60;99.90;;;;;;5009987;28;20487;-69
2021/12/24 07:22:07;;;;;;;1999.90;999.90;;;9.60;99.90;;;;;;5009989;28;20449;-69
2021/12/24 07:24:34;;;;;;;1999.90;999.90;;;9.50;99.90;;;;;;5009656;28;20293;-68
2021/12/24 07:27:01;;;;;;;1999.90;999.90;;;9.50;99.90;;;;;;5009929;28;20467;-69
2021/12/24 07:29:27;;;;;;;1999.90;999.90;;;9.40;99.90;;;;;;5009903;28;20521;-68
2021/12/24 07:31:53;;;;;;;1999.90;999.90;;;9.40;99.90;;;;;;5009794;28;20903;-68
2021/12/24 07:34:19;;;;;;;1999.90;999.90;;;9.50;99.90;;;;;;5009507;28;20408;-68
2021/12/24 07:36:45;;;;;;;1999.90;999.90;;;9.40;99.90;;;;;;5009736;28;20409;-68
2021/12/24 07:39:10;;;;;;;1999.90;999.90;;;9.40;99.90;;;;;;5009699;28;20205;-69
2021/12/24 07:41:36;;;;;;;1999.90;999.90;;;9.40;99.90;;;;;;5009738;28;20222;-68
2021/12/24 07:44:02;;;;;;;1999.90;999.90;;;9.40;99.90;;;;;;5009307;28;20297;-68
2021/12/24 07:46:35;;;;;;;1999.90;999.90;;;9.50;99.90;;;;;;5009619;28;20508;-68
2021/12/24 07:49:12;;;;;;;1999.90;999.90;;;9.40;99.90;;;;;;5009495;28;20481;-68
2021/12/24 07:54:22;;;;;;;1999.90;999.90;;;9.50;99.90;;;;;;5009463;28;20773;-69
2021/12/24 07:56:47;;;;;;;1999.90;999.90;;;9.50;99.90;;;;;;5009502;28;20421;-68
2021/12/24 07:59:15;;;;;;;1999.90;999.90;;;9.50;99.90;;;;;;5009166;28;20667;-68
2021/12/24 08:01:43;;;;;;;1999.90;999.90;;;9.60;99.90;;;;;;5009238;28;20173;-68
2021/12/24 08:04:10;;;;;;;1999.90;999.90;;;9.60;99.90;;;;;;5008582;28;20460;-68
2021/12/24 08:06:36;;;;;;;1999.90;999.90;;;9.70;99.90;;;;;;5009315;28;20415;-68
2021/12/24 08:09:02;;;;;;;1999.90;999.90;;;9.60;99.90;;;;;;5009216;28;20527;-68
2021/12/24 08:11:28;;;;;;;1999.90;999.90;;;9.70;99.90;;;;;;5009328;28;20174;-68
2021/12/24 08:13:53;;;;;;;1999.90;999.90;;;9.70;99.90;;;;;;5009296;28;20420;-68
2021/12/24 08:16:20;;;;;;;1999.90;999.90;;;9.70;99.90;;;;;;5008886;28;20178;-68
2021/12/24 08:18:45;;;;;;;1999.90;999.90;;;9.70;99.90;;;;;;5009365;28;20247;-68
2021/12/24 08:21:11;;;;;;;1999.90;999.90;;;9.70;99.90;;;;;;5009096;28;20405;-68
2021/12/24 08:23:37;;;;;;;1999.90;999.90;;;9.70;99.90;;;;;;5009079;28;20225;-68
2021/12/24 08:26:03;;;;;;;1999.90;999.90;;;9.70;99.90;;;;;;5008872;28;20570;-69
2021/12/24 08:28:29;;;;;;;1999.90;999.90;;;9.70;99.90;;;;;;5009024;28;20169;-68
2021/12/24 08:30:55;;;;;;;1999.90;999.90;;;9.70;99.90;;;;;;5008952;28;20464;-68
2021/12/24 08:33:21;;;;;;;1999.90;999.90;;;9.80;99.90;;;;;;5009037;28;20440;-68
2021/12/24 08:35:48;;;;;;;1999.90;999.90;;;9.80;99.90;;;;;;5008836;28;20412;-68
2021/12/24 08:38:13;;;;;;;1999.90;999.90;;;9.90;99.90;;;;;;5008937;28;20419;-68
2021/12/24 08:40:39;;;;;;;1999.90;999.90;;;9.80;99.90;;;;;;5009046;28;20413;-68
2021/12/24 08:43:05;;;;;;;1999.90;999.90;;;9.80;99.90;;;;;;5008848;28;20451;-69
2021/12/24 08:45:30;;;;;;;1999.90;999.90;;;9.80;99.90;;;;;;5008512;28;20207;-68
2021/12/24 08:47:56;;;;;;;1999.90;999.90;;;9.90;99.90;;;;;;5008897;28;20316;-68
2021/12/24 08:50:22;;;;;;;1999.90;999.90;;;10.00;99.90;;;;;;5008811;28;20200;-68
2021/12/24 08:52:47;;;;;;;1999.90;999.90;;;9.90;99.90;;;;;;5008791;28;20538;-68
2021/12/24 08:55:15;;;;;;;1999.90;999.90;;;9.90;99.90;;;;;;5008570;28;20176;-68
2021/12/24 08:57:42;;;;;;;1999.90;999.90;;;9.90;99.90;;;;;;5008840;28;20593;-68
2021/12/24 09:00:11;;;;;;;1999.90;999.90;;;9.90;99.90;;;;;;5008528;28;20449;-68
2021/12/24 09:02:38;;;;;;;1999.90;999.90;;;10.00;99.90;;;;;;5008524;28;20422;-69
2021/12/24 09:05:06;;;;;;;1999.90;999.90;;;9.90;99.90;;;;;;5008401;28;20422;-68
2021/12/24 09:07:32;;;;;;;1999.90;999.90;;;9.90;99.90;;;;;;5008646;28;20437;-68
2021/12/24 09:09:58;;;;;;;1999.90;999.90;;;9.90;99.90;;;;;;5008538;28;20436;-68
2021/12/24 09:12:24;;;;;;;1999.90;999.90;;;10.00;99.90;;;;;;5008457;28;20766;-68
2021/12/24 09:14:50;;;;;;;1999.90;999.90;;;9.90;99.90;;;;;;5008613;28;20252;-68
2021/12/24 09:17:16;;;;;;;1999.90;999.90;;;10.00;99.90;;;;;;5011779;28;20415;-68
2021/12/24 09:19:47;;;;;;;1999.90;999.90;;;10.00;99.90;;;;;;5011727;28;20438;-68
2021/12/24 09:22:17;;;;;;;1999.90;999.90;;;10.00;99.90;;;;;;5011128;28;20416;-68
2021/12/24 09:24:45;;;;;;;1999.90;999.90;;;10.00;99.90;;;;;;5011351;28;20456;-68
2021/12/24 09:27:11;;;;;;;1999.90;999.90;;;10.00;99.90;;;;;;5011639;28;20917;-68
2021/12/24 09:29:36;;;;;;;1999.90;999.90;;;9.90;99.90;;;;;;5011388;28;20478;-68
2021/12/24 09:32:03;;;;;;;1999.90;999.90;;;9.90;99.90;;;;;;5011806;28;20816;-68
2021/12/24 09:34:28;;;;;;;1999.90;999.90;;;9.90;99.90;;;;;;5011354;28;20169;-68
2021/12/24 09:36:54;;;;;;;1999.90;999.90;;;9.90;99.90;;;;;;5011536;28;20967;-68
2021/12/24 09:39:21;;;;;;;1999.90;999.90;;;9.90;99.90;;;;;;5011465;28;20200;-68
2021/12/24 09:41:47;;;;;;;1999.90;999.90;;;9.90;99.90;;;;;;5011457;28;20417;-68
2021/12/24 09:44:13;;;;;;;1999.90;999.90;;;9.80;99.90;;;;;;5011047;28;20859;-68
2021/12/24 09:46:42;;;;;;;1999.90;999.90;;;9.80;99.90;;;;;;5011407;28;20863;-68
2021/12/24 09:49:12;;;;;;;1999.90;999.90;;;9.80;99.90;;;;;;5011344;28;20465;-68
2021/12/24 09:51:41;;;;;;;1999.90;999.90;;;9.80;99.90;;;;;;5011394;28;20424;-68
2021/12/24 09:54:16;;;;;;;1999.90;999.90;;;9.80;99.90;;;;;;5010964;28;20484;-68
2021/12/24 09:56:42;;;;;;;1999.90;999.90;;;9.80;99.90;;;;;;5011288;28;20497;-68
2021/12/24 09:59:08;;;;;;;1999.90;999.90;;;9.80;99.90;;;;;;5010854;28;20457;-68
2021/12/24 10:01:38;;;;;;;1999.90;999.90;;;9.80;99.90;;;;;;5011171;28;20521;-68
2021/12/24 10:04:12;;;;;;;1999.90;999.90;;;9.80;99.90;;;;;;5010886;28;20681;-68
2021/12/24 10:06:47;;;;;;;1999.90;999.90;;;9.80;99.90;;;;;;5011019;28;20415;-68
2021/12/24 10:09:13;;;;;;;1999.90;999.90;;;9.80;99.90;;;;;;5011057;28;20421;-68
2021/12/24 10:11:56;;;;;;;1999.90;999.90;;;9.80;99.90;;;;;;5010974;28;20821;-68
2021/12/24 10:14:30;;;;;;;1999.90;999.90;;;9.90;99.90;;;;;;5010887;28;20249;-68
2021/12/24 10:16:56;;;;;;;1999.90;999.90;;;10.00;99.90;;;;;;5010948;28;20921;-68
2021/12/24 10:19:22;;;;;;;1999.90;999.90;;;10.00;99.90;;;;;;5010823;28;20476;-68
2021/12/24 10:21:57;;;;;;;1999.90;999.90;;;10.00;99.90;;;;;;5010846;28;20182;-68
2021/12/24 10:24:26;;;;;;;1999.90;999.90;;;10.10;99.90;;;;;;5010526;28;20691;-68
2021/12/24 10:26:53;;;;;;;1999.90;999.90;;;10.10;99.90;;;;;;5010528;28;20412;-68
2021/12/24 10:29:41;;;;;;;1999.90;999.90;;;10.30;99.90;;;;;;5010732;28;20438;-68
2021/12/24 10:32:14;;;;;;;1999.90;999.90;;;10.40;99.90;;;;;;5010639;28;20417;-68
2021/12/24 10:34:42;;;;;;;1999.90;999.90;;;10.40;99.90;;;;;;5010651;28;20403;-68
2021/12/24 10:37:22;;;;;;;1999.90;999.90;;;10.40;99.90;;;;;;5010662;28;20415;-68
2021/12/24 10:39:57;;;;;;;1999.90;999.90;;;10.40;99.90;;;;;;5010351;28;20512;-68
2021/12/24 10:42:37;;;;;;;1999.90;999.90;;;10.40;99.90;;;;;;5010495;28;20445;-68
2021/12/24 10:45:15;;;;;;;1999.90;999.90;;;10.30;99.90;;;;;;5010439;28;20424;-68
2021/12/24 10:47:42;;;;;;;1999.90;999.90;;;10.20;99.90;;;;;;4994687;28;20447;-66
2021/12/24 10:55:30;;;;;;;1999.90;999.90;;;10.30;99.90;;;;;;4992193;28;20445;-70
2021/12/24 10:57:59;;;;;;;1999.90;999.90;;;10.30;99.90;;;;;;4990702;28;20426;-70
2021/12/24 11:00:27;;;;;;;1999.90;999.90;;;10.30;99.90;;;;;;4990890;28;21019;-70
2021/12/24 11:02:58;;;;;;;1999.90;999.90;;;10.20;99.90;;;;;;4990373;28;20455;-70
2021/12/24 11:05:30;;;;;;;1999.90;999.90;;;10.30;99.90;;;;;;4990298;28;20404;-69
2021/12/24 11:07:58;;;;;;;1999.90;999.90;;;10.30;99.90;;;;;;4986394;28;20406;-68
2021/12/24 11:10:26;;;;;;;1999.90;999.90;;;10.30;99.90;;;;;;4987830;28;20442;-69
2021/12/24 11:12:57;;;;;;;1999.90;999.90;;;10.40;99.90;;;;;;4988834;28;20413;-70
2021/12/24 11:15:24;;;;;;;1999.90;999.90;;;10.30;99.90;;;;;;4988183;28;20435;-70
2021/12/24 11:17:53;;;;;;;1999.90;999.90;;;10.40;99.90;;;;;;4988716;28;20416;-70
2021/12/24 11:20:19;;;;;;;1999.90;999.90;;;10.40;99.90;;;;;;4988929;28;20439;-69
2021/12/24 11:23:10;;;;;;;1999.90;999.90;;;10.40;99.90;;;;;;4988408;28;20420;-69
2021/12/24 11:25:39;;;;;;;1999.90;999.90;;;10.50;99.90;;;;;;4990448;28;20223;-69
2021/12/24 11:28:05;;;;;;;1999.90;999.90;;;10.40;99.90;;;;;;4988639;28;20777;-69
2021/12/24 11:30:33;;;;;;;1999.90;999.90;;;10.50;99.90;;;;;;4988325;28;20569;-70
2021/12/24 11:32:59;;;;;;;1999.90;999.90;;;10.50;99.90;;;;;;4988724;28;20419;-69
2021/12/24 11:35:27;;;;;;;1999.90;999.90;;;10.50;99.90;;;;;;4988602;28;20944;-69
2021/12/24 11:37:53;;;;;;;1999.90;999.90;;;10.60;99.90;;;;;;4987132;28;20189;-69
2021/12/24 11:40:21;;;;;;;1999.90;999.90;;;10.60;99.90;;;;;;4988451;28;20948;-69
2021/12/24 11:43:07;;;;;;;1999.90;999.90;;;10.60;99.90;;;;;;4988506;28;20495;-69
2021/12/24 11:45:33;;;;;;;1999.90;999.90;;;10.60;99.90;;;;;;4987798;28;21010;-68
2021/12/24 11:48:00;;;;;;;1999.90;999.90;;;10.60;99.90;;;;;;4988525;28;20417;-69
2021/12/24 11:50:27;;;;;;;1999.90;999.90;;;10.60;99.90;;;;;;4988533;28;20511;-69
2021/12/24 11:52:56;;;;;;;1999.90;999.90;;;10.60;99.90;;;;;;4987936;28;20499;-70
2021/12/24 11:55:26;;;;;;;1999.90;999.90;;;10.60;99.90;;;;;;4988069;28;20438;-69
2021/12/24 11:57:55;;;;;;;1999.90;999.90;;;10.60;99.90;;;;;;4988185;28;20403;-69
2021/12/24 12:00:24;;;;;;;1999.90;999.90;;;10.60;99.90;;;;;;4987770;28;20484;-70
2021/12/24 12:02:50;;;;;;;1999.90;999.90;;;10.60;99.90;;;;;;4988357;28;20430;-69
2021/12/24 12:05:32;;;;;;;1999.90;999.90;;;10.60;99.90;;;;;;4987994;28;20823;-70
2021/12/24 12:08:29;;;;;;;1999.90;999.90;;;10.70;99.90;;;;;;4987713;28;20408;-69
2021/12/24 12:11:04;;;;;;;1999.90;999.90;;;10.80;99.90;;;;;;4987850;28;20438;-69
2021/12/24 12:13:45;;;;;;;1999.90;999.90;;;10.70;99.90;;;;;;4988284;28;20412;-68
2021/12/24 12:16:13;;;;;;;1999.90;999.90;;;10.70;99.90;;;;;;4987764;28;20438;-70
2021/12/24 12:19:01;;;;;;;1999.90;999.90;;;10.70;99.90;;;;;;4988116;28;20531;-70
2021/12/24 12:21:39;;;;;;;1999.90;999.90;;;10.70;99.90;;;;;;4987685;28;20416;-69
2021/12/24 12:26:41;;;;;;;1999.90;999.90;;;10.70;99.90;;;;;;4988215;28;20469;-70
2021/12/24 12:29:43;;;;;;;1999.90;999.90;;;10.80;99.90;;;;;;4987559;28;20525;-69
2021/12/24 12:32:17;;;;;;;1999.90;999.90;;;10.80;99.90;;;;;;4990232;28;20510;-69
2021/12/24 12:34:43;;;;;;;1999.90;999.90;;;10.70;99.90;;;;;;4987620;28;20415;-69
2021/12/24 12:37:25;;;;;;;1999.90;999.90;;;10.80;99.90;;;;;;4987582;28;20412;-69
2021/12/24 12:39:54;;;;;;;1999.90;999.90;;;10.80;99.90;;;;;;4987636;28;20254;-68
2021/12/24 12:42:22;;;;;;;1999.90;999.90;;;10.80;99.90;;;;;;4987981;28;20418;-69
2021/12/24 12:44:53;;;;;;;1999.90;999.90;;;10.70;99.90;;;;;;4986840;28;20467;-67
2021/12/24 12:47:28;;;;;;;1999.90;999.90;;;10.70;99.90;;;;;;4987755;28;20410;-67
2021/12/24 12:50:14;;;;;;;1999.90;999.90;;;10.70;99.90;;;;;;4989408;28;20825;-69
2021/12/24 12:52:41;;;;;;;1999.90;999.90;;;10.60;99.90;;;;;;4990919;28;20403;-68
2021/12/24 12:55:30;;;;;;;1999.90;999.90;;;10.60;99.90;;;;;;4990753;28;20422;-67
2021/12/24 12:58:22;;;;;;;1999.90;999.90;;;10.50;99.90;;;;;;4990788;28;20410;-67
2021/12/24 13:01:26;;;;;;;1999.90;999.90;;;10.50;99.90;;;;;;4991024;28;20414;-68
2021/12/24 13:03:58;;;;;;;1999.90;999.90;;;10.50;99.90;;;;;;5011309;28;20474;-68
2021/12/24 13:06:35;;;;;;;1999.90;999.90;;;10.50;99.90;;;;;;5010600;28;20481;-68
2021/12/24 13:09:16;;;;;;;1999.90;999.90;;;10.50;99.90;;;;;;4999153;28;20511;-68
2021/12/24 13:11:45;;;;;;;1999.90;999.90;;;10.50;99.90;;;;;;4990891;28;20407;-68
2021/12/24 13:14:12;;;;;;;1999.90;999.90;;;10.50;99.90;;;;;;4990049;28;20418;-68
2021/12/24 13:16:47;;;;;;;1999.90;999.90;;;10.40;99.90;;;;;;4990645;28;20900;-68
2021/12/24 13:24:46;;;;;;;1999.90;999.90;;;10.40;99.90;;;;;;4990377;28;20517;-68
2021/12/24 13:27:12;;;;;;;1999.90;999.90;;;10.30;99.90;;;;;;4990643;28;20404;-69
2021/12/24 13:29:38;;;;;;;1999.90;999.90;;;10.40;99.90;;;;;;4989953;28;20797;-68
2021/12/24 13:32:04;;;;;;;1999.90;999.90;;;10.30;99.90;;;;;;4990611;28;20262;-69
2021/12/24 13:34:30;;;;;;;1999.90;999.90;;;10.40;99.90;;;;;;4990302;28;20659;-68
2021/12/24 13:37:15;;;;;;;1999.90;999.90;;;10.30;99.90;;;;;;4989798;28;20896;-68
2021/12/24 13:39:49;;;;;;;1999.90;999.90;;;10.30;99.90;;;;;;4990330;28;20430;-68
2021/12/24 13:42:16;;;;;;;1999.90;999.90;;;10.20;99.90;;;;;;4990474;28;20425;-68
2021/12/24 13:44:41;;;;;;;1999.90;999.90;;;10.10;99.90;;;;;;4989594;28;20470;-69
2021/12/24 13:47:17;;;;;;;1999.90;999.90;;;10.10;99.90;;;;;;4990177;28;20412;-69
2021/12/24 13:55:26;;;;;;;1999.90;999.90;;;10.00;99.90;;;;;;4990308;28;20411;-68
2021/12/24 13:58:04;;;;;;;1999.90;999.90;;;10.00;99.90;;;;;;4989241;28;20407;-68
2021/12/24 14:00:34;;;;;;;1999.90;999.90;;;9.90;99.90;;;;;;4989472;28;20492;-69
2021/12/24 14:03:02;;;;;;;1999.90;999.90;;;9.90;99.90;;;;;;4990078;28;20553;-68
2021/12/24 14:05:28;;;;;;;1999.90;999.90;;;10.00;99.90;;;;;;4989286;28;20775;-69